Airfield :
LOGIN :

Register | Disclaimer

   EN    FR    IT 

 










Legend :    VFR   Marginal VFR   IFR   Intensive IFR   Very Intensive IFR
Visi :
Ceiling :
>= 8 km
>= 3000ft
5 to 8 km
1000 to 3000 ft
1500m to 5 km
500 to 1000 ft
800 to 1500m
200 to 500 ft
< 800m
< 200 ft
Symbols :   Thunderstorms  Fog  Heavy snow  Heavy precipitations  Wind > 20 kt
SIGMETs :     Misc.  Thunderstorms  Icing  Turbulence  Mountain Waves  Volcanic Ashes






- Airport Elevation : 80 ft
- IATA code : LPL


EGGP - Liverpool John Lennon

CURRENT METAR :
  • 071520Z 29009KT 250V330 9999 SCT033 12/04 Q1016

EXPIRED METARs :
  • 071450Z 31010KT 280V350 9999 SCT030 13/06 Q1016
  • 071420Z 32010KT 280V350 9999 SCT030 14/06 Q1016
  • 071350Z 29012KT 9999 SCT030 13/05 Q1016
  • 071320Z 30012KT 270V340 9999 SCT038TCU 13/05 Q1016
  • 071250Z 30012KT 260V330 9999 SCT038TCU 12/05 Q1016

TAF AMD TAF EGGP
Valid from the 07 at 14:00 until the 08 at 12:00 UTC


071429Z 0714/0812 30008KT 9999 SCT030
TEMPO 0714/0717 7000 SHRA
BECMG 0803/0806 11012KT 6000 RA
TEMPO 0806/0812 12015G25KT 1200 +RA BKN008
ATIS : +44 151 907 2000 (option 5 or ext 5150)
Met : +44 871 750 5150



MET'MAP, your aeronautical weather chart ! - Copyright ORBIFLY December 2007 - Disclaimer

ORBIFLY MET'MAP TEAM :

Programming & Development : Alexandra Zaïnal
Concept & original design : Baudouin d'Aumeries
Assistance for programming : Marc-Olivier Méhu
Technical & hardware support : Manuel Goepfert

Contact : metmap@orbifly.com




SOURCES & CREDITS :

   NOAA